Time;durP1;ratioP1;P1;durP2;ratioP2;P2;SDS_P1;SDS_P2;PMS_P1;PMS_P2;Temp;Humidity;BMP_temperature;BMP_pressure;BME280_temperature;BME280_humidity;BME280_pressure;Samples;Min_cycle;Max_cycle;Signal;HPM_P1;HPM_P2
2024/04/12 00:01:16;;;;;;;5.50;2.10;;;;;;;12.45;100.00;102158.78;5458950;26;20003;-73
2024/04/12 00:03:42;;;;;;;6.53;1.80;;;;;;;12.38;100.00;102147.03;5452080;26;20317;-73
2024/04/12 00:06:15;;;;;;;5.55;1.83;;;;;;;12.40;100.00;102153.19;5449209;26;20018;-73
2024/04/12 00:08:46;;;;;;;4.30;1.90;;;;;;;12.39;100.00;102145.91;5478926;25;20015;-73
2024/04/12 00:11:12;;;;;;;7.32;2.25;;;;;;;12.37;100.00;102151.78;5442878;26;20823;-73
2024/04/12 00:13:40;;;;;;;5.93;1.90;;;;;;;12.29;100.00;102149.47;5464953;26;20412;-73
2024/04/12 00:16:08;;;;;;;6.85;1.75;;;;;;;12.25;100.00;102143.56;5468728;26;19995;-73
2024/04/12 00:18:35;;;;;;;4.82;1.67;;;;;;;12.22;100.00;102144.09;5451624;26;20021;-73
2024/04/12 00:21:01;;;;;;;6.32;2.05;;;;;;;12.21;100.00;102139.66;5441410;26;20002;-73
2024/04/12 00:23:39;;;;;;;5.22;1.73;;;;;;;12.13;100.00;102131.78;5452501;26;19999;-73
2024/04/12 00:26:05;;;;;;;3.50;1.70;;;;;;;12.12;100.00;102138.47;5512635;25;20342;-73
2024/04/12 00:28:31;;;;;;;6.50;1.90;;;;;;;12.07;100.00;102135.63;5430933;26;19999;-73
2024/04/12 00:31:03;;;;;;;5.35;1.85;;;;;;;12.04;100.00;102133.38;5477580;26;20027;-73
2024/04/12 00:33:34;;;;;;;5.60;2.10;;;;;;;11.99;100.00;102128.59;5433815;26;20007;-73
2024/04/12 00:36:07;;;;;;;5.95;2.17;;;;;;;12.01;100.00;102131.97;5426680;26;20002;-73
2024/04/12 00:38:36;;;;;;;3.70;1.83;;;;;;;11.96;100.00;102131.91;5491438;26;20541;-73
2024/04/12 00:41:11;;;;;;;8.48;2.10;;;;;;;11.85;100.00;102136.53;5461337;26;20042;-73
2024/04/12 00:43:51;;;;;;;5.30;2.00;;;;;;;11.85;100.00;102125.41;5462462;26;20013;-73
2024/04/12 00:46:24;;;;;;;6.93;2.28;;;;;;;11.81;100.00;102131.72;5410382;26;20002;-73
2024/04/12 00:48:57;;;;;;;5.38;1.77;;;;;;;11.78;100.00;102129.47;5490769;26;20510;-73
2024/04/12 00:51:25;;;;;;;5.03;1.70;;;;;;;11.78;100.00;102130.31;5430908;26;20006;-73
2024/04/12 00:53:57;;;;;;;6.05;2.03;;;;;;;11.77;100.00;102125.84;5430518;26;20030;-74
2024/04/12 00:56:27;;;;;;;4.07;1.92;;;;;;;11.72;100.00;102125.78;5431672;26;20020;-74
2024/04/12 00:58:59;;;;;;;7.70;1.98;;;;;;;11.67;100.00;102122.94;5431739;26;20006;-73
2024/04/12 01:01:24;;;;;;;3.85;1.80;;;;;;;11.68;100.00;102127.44;5432592;26;20006;-73
2024/04/12 01:03:53;;;;;;;4.63;1.50;;;;;;;11.66;100.00;102121.28;5459358;26;20379;-73
2024/04/12 01:06:26;;;;;;;3.70;1.90;;;;;;;11.61;100.00;102116.47;5460971;26;19999;-73
2024/04/12 01:08:54;;;;;;;3.47;1.80;;;;;;;11.57;100.00;102112.56;5430066;26;20006;-73
2024/04/12 01:11:20;;;;;;;6.68;2.10;;;;;;;11.54;100.00;102106.69;5460271;26;20002;-73
2024/04/12 01:13:47;;;;;;;3.55;1.60;;;;;;;11.52;100.00;102111.66;5459809;26;20020;-73
2024/04/12 01:16:13;;;;;;;5.47;2.17;;;;;;;11.47;100.00;102111.59;5424915;26;20003;-73
2024/04/12 01:18:38;;;;;;;5.55;1.80;;;;;;;11.40;100.00;102115.44;5430495;26;20462;-73
2024/04/12 01:21:10;;;;;;;5.07;1.65;;;;;;;11.41;100.00;102107.91;5388991;26;20002;-73
2024/04/12 01:23:40;;;;;;;5.32;1.70;;;;;;;11.39;100.00;102110.13;5431638;26;21586;-74
2024/04/12 01:26:09;;;;;;;4.68;2.05;;;;;;;11.33;100.00;102106.44;5490061;26;20419;-74
2024/04/12 01:28:36;;;;;;;6.90;2.10;;;;;;;11.28;100.00;102098.06;5491710;26;20002;-73
2024/04/12 01:31:01;;;;;;;8.35;2.65;;;;;;;11.32;100.00;102092.81;5458815;26;20477;-73
2024/04/12 01:33:27;;;;;;;5.35;1.92;;;;;;;11.26;100.00;102088.28;5459304;26;20024;-73
2024/04/12 01:35:53;;;;;;;6.45;2.20;;;;;;;11.27;100.00;102084.41;5429009;26;20391;-73
2024/04/12 01:38:20;;;;;;;5.28;2.35;;;;;;;11.23;100.00;102089.66;5459173;26;20390;-73
2024/04/12 01:40:46;;;;;;;7.75;1.90;;;;;;;11.19;100.00;102086.53;5457589;26;20007;-73
2024/04/12 01:43:12;;;;;;;6.93;1.98;;;;;;;11.15;100.00;102096.50;5464439;26;20059;-73
2024/04/12 01:45:39;;;;;;;4.00;1.70;;;;;;;11.11;100.00;102084.19;5444420;26;20002;-73
2024/04/12 01:48:05;;;;;;;4.53;1.83;;;;;;;11.16;100.00;102083.44;5505764;26;20016;-73
2024/04/12 01:50:31;;;;;;;7.25;2.00;;;;;;;11.10;100.00;102084.47;5495723;26;20704;-73
2024/04/12 01:52:58;;;;;;;8.00;2.15;;;;;;;11.05;100.00;102076.91;5459604;26;20074;-73
2024/04/12 01:55:24;;;;;;;7.63;2.00;;;;;;;11.04;100.00;102085.53;5489490;25;20445;-73
2024/04/12 01:57:55;;;;;;;5.90;1.85;;;;;;;11.06;100.00;102084.16;5422888;26;20003;-74
2024/04/12 02:00:23;;;;;;;4.95;2.10;;;;;;;11.00;100.00;102082.41;5481839;26;20002;-73
2024/04/12 02:02:54;;;;;;;5.40;2.13;;;;;;;10.94;100.00;102086.22;5460802;26;20444;-73
2024/04/12 02:05:28;;;;;;;5.70;2.03;;;;;;;10.98;100.00;102079.06;5458453;26;20006;-73
2024/04/12 02:07:59;;;;;;;6.97;1.88;;;;;;;10.98;100.00;102075.41;5425306;26;20052;-73
2024/04/12 02:10:24;;;;;;;8.55;2.13;;;;;;;10.93;100.00;102068.69;5428597;26;20010;-73
2024/04/12 02:12:53;;;;;;;6.93;2.40;;;;;;;10.89;100.00;102063.91;5429345;26;20013;-74
2024/04/12 02:15:20;;;;;;;5.00;1.75;;;;;;;10.88;100.00;102059.47;5423641;26;20039;-73
2024/04/12 02:17:57;;;;;;;5.75;1.63;;;;;;;10.77;100.00;102052.91;5464791;26;19998;-73
2024/04/12 02:20:46;;;;;;;5.07;2.30;;;;;;;10.77;100.00;102061.25;5439016;26;20036;-73
2024/04/12 02:23:13;;;;;;;9.63;2.00;;;;;;;10.79;100.00;102058.22;5463614;26;20392;-73
2024/04/12 02:25:39;;;;;;;7.97;2.13;;;;;;;10.74;100.00;102059.00;5489081;26;20017;-73
2024/04/12 02:28:16;;;;;;;6.38;2.25;;;;;;;10.70;100.00;102057.84;5399582;26;20002;-73
2024/04/12 02:30:54;;;;;;;7.32;2.33;;;;;;;10.65;100.00;102060.56;5459188;26;20066;-73
2024/04/12 02:33:21;;;;;;;8.77;1.73;;;;;;;10.59;100.00;102058.81;5465988;26;20006;-73
2024/04/12 02:35:47;;;;;;;6.82;1.90;;;;;;;10.58;100.00;102057.09;5488340;26;20360;-73
2024/04/12 02:38:16;;;;;;;6.00;1.83;;;;;;;10.57;100.00;102058.22;5428935;26;20013;-73
2024/04/12 02:40:45;;;;;;;3.20;1.75;;;;;;;10.55;100.00;102063.19;5459080;26;20029;-73
2024/04/12 02:43:15;;;;;;;6.25;2.15;;;;;;;10.50;100.00;102055.59;5402472;26;20003;-73
2024/04/12 02:45:51;;;;;;;4.07;1.70;;;;;;;10.47;100.00;102054.19;5474927;26;20017;-73
2024/04/12 02:48:16;;;;;;;5.32;2.15;;;;;;;10.46;100.00;102057.22;5510189;26;20453;-73
2024/04/12 02:51:12;;;;;;;7.05;2.20;;;;;;;10.47;100.00;102059.75;5461599;26;20086;-73
2024/04/12 02:53:38;;;;;;;7.95;2.10;;;;;;;10.46;100.00;102069.16;5485423;26;20030;-73
2024/04/12 02:56:10;;;;;;;4.53;1.60;;;;;;;10.38;100.00;102066.00;5461969;26;20324;-73
2024/04/12 02:58:39;;;;;;;5.60;1.92;;;;;;;10.42;100.00;102076.34;5483557;25;20029;-73
2024/04/12 03:01:07;;;;;;;6.88;2.10;;;;;;;10.34;100.00;102076.78;5488919;26;20077;-73
2024/04/12 03:03:36;;;;;;;7.70;2.28;;;;;;;10.37;100.00;102075.44;5458691;26;20008;-73
2024/04/12 03:06:02;;;;;;;5.07;2.15;;;;;;;10.33;100.00;102071.47;5459189;26;20017;-74
2024/04/12 03:08:32;;;;;;;5.82;1.80;;;;;;;10.27;100.00;102065.00;5457411;26;20553;-73
2024/04/12 03:11:12;;;;;;;4.85;1.67;;;;;;;10.28;100.00;102061.13;5430593;26;20346;-73
2024/04/12 03:13:38;;;;;;;5.38;2.00;;;;;;;10.23;100.00;102058.25;5459463;26;20047;-73
2024/04/12 03:16:13;;;;;;;6.82;2.20;;;;;;;10.24;100.00;102060.75;5458258;26;20003;-73
2024/04/12 03:18:41;;;;;;;4.65;1.90;;;;;;;10.16;100.00;102063.13;5489705;25;20029;-73
2024/04/12 03:21:06;;;;;;;5.53;1.92;;;;;;;10.19;100.00;102069.00;5457552;26;20009;-73
2024/04/12 03:23:32;;;;;;;4.35;1.90;;;;;;;10.17;100.00;102071.22;5428033;26;20369;-73
2024/04/12 03:25:58;;;;;;;7.53;1.88;;;;;;;10.10;100.00;102069.69;5457229;26;20021;-73
2024/04/12 03:28:23;;;;;;;5.00;1.90;;;;;;;10.09;100.00;102070.78;5488266;26;20021;-73
2024/04/12 03:30:50;;;;;;;7.18;2.33;;;;;;;10.07;100.00;102060.75;5490140;26;20017;-74
2024/04/12 03:33:16;;;;;;;4.55;2.13;;;;;;;10.02;100.00;102060.69;5487948;26;20021;-73
2024/04/12 03:35:42;;;;;;;8.50;2.42;;;;;;;9.97;100.00;102056.97;5487437;26;20386;-73
2024/04/12 03:38:26;;;;;;;7.85;2.30;;;;;;;10.00;100.00;102056.47;5487844;26;20006;-73
2024/04/12 03:40:58;;;;;;;5.18;2.00;;;;;;;9.93;100.00;102059.44;5461785;26;20013;-73
2024/04/12 03:43:27;;;;;;;5.18;2.17;;;;;;;9.91;100.00;102052.44;5457726;26;20410;-73
2024/04/12 03:45:59;;;;;;;6.43;2.40;;;;;;;9.91;100.00;102053.28;5423951;26;20038;-73
2024/04/12 03:48:24;;;;;;;5.87;2.40;;;;;;;9.89;100.00;102047.16;5512950;26;20470;-73
2024/04/12 03:51:06;;;;;;;8.38;2.75;;;;;;;9.84;100.00;102045.13;5486860;26;20009;-73
2024/04/12 03:53:32;;;;;;;7.60;2.10;;;;;;;9.80;100.00;102037.56;5462555;26;20458;-73
2024/04/12 03:55:57;;;;;;;5.45;2.20;;;;;;;9.82;100.00;102049.25;5461147;26;19998;-73
2024/04/12 03:58:24;;;;;;;7.47;2.40;;;;;;;9.77;100.00;102038.06;5457031;26;19999;-73
2024/04/12 04:00:51;;;;;;;5.65;2.33;;;;;;;9.72;100.00;102052.69;5460924;26;20021;-73
2024/04/12 04:03:32;;;;;;;6.32;2.30;;;;;;;9.72;100.00;102036.06;5461229;26;20378;-73
2024/04/12 04:06:11;;;;;;;5.10;2.33;;;;;;;9.73;100.00;102040.50;5454552;26;20002;-73
2024/04/12 04:08:48;;;;;;;6.85;2.28;;;;;;;9.72;100.00;102038.84;5460083;26;20018;-73
2024/04/12 04:11:17;;;;;;;7.95;2.45;;;;;;;9.67;100.00;102038.75;5428201;26;20018;-73
2024/04/12 04:13:44;;;;;;;6.53;2.30;;;;;;;9.60;100.00;102033.34;5408160;26;20043;-73
2024/04/12 04:16:10;;;;;;;4.22;2.10;;;;;;;9.62;100.00;102036.69;5397697;26;20014;-73
2024/04/12 04:18:36;;;;;;;6.78;2.33;;;;;;;9.59;100.00;102039.16;5492194;25;20002;-73
2024/04/12 04:21:07;;;;;;;5.82;2.10;;;;;;;9.56;100.00;102032.16;5492772;26;20664;-73
2024/04/12 04:23:39;;;;;;;6.30;2.13;;;;;;;9.53;100.00;102027.13;5491000;26;20013;-73
2024/04/12 04:26:08;;;;;;;5.82;2.08;;;;;;;9.51;100.00;102034.00;5462337;26;20662;-73
2024/04/12 04:28:37;;;;;;;7.57;2.25;;;;;;;9.46;100.00;102034.75;5461142;26;20002;-73
2024/04/12 04:31:06;;;;;;;7.65;2.35;;;;;;;9.45;100.00;102043.34;5430222;26;20082;-73
2024/04/12 04:33:34;;;;;;;8.02;2.47;;;;;;;9.40;100.00;102041.28;5461122;26;20447;-73
2024/04/12 04:36:09;;;;;;;9.27;2.22;;;;;;;9.40;100.00;102038.53;5430033;26;20006;-73
2024/04/12 04:38:43;;;;;;;5.45;1.92;;;;;;;9.33;100.00;102043.38;5462440;26;20006;-73
2024/04/12 04:41:08;;;;;;;8.63;2.42;;;;;;;9.36;100.00;102042.88;5467833;26;20450;-73
2024/04/12 04:43:35;;;;;;;7.78;2.67;;;;;;;9.34;100.00;102047.84;5430395;26;20055;-73
2024/04/12 04:46:22;;;;;;;6.63;2.08;;;;;;;9.30;100.00;102057.72;5481133;26;20035;-73
2024/04/12 04:48:47;;;;;;;5.05;1.98;;;;;;;9.28;100.00;102051.63;5450294;26;20666;-73
2024/04/12 04:51:12;;;;;;;6.93;2.35;;;;;;;9.24;100.00;102044.88;5430427;26;20002;-73
2024/04/12 04:53:38;;;;;;;6.80;2.35;;;;;;;9.21;100.00;102043.44;5459323;26;20014;-73
2024/04/12 04:56:05;;;;;;;6.35;2.20;;;;;;;9.22;100.00;102038.72;5429933;26;19998;-73
2024/04/12 04:58:34;;;;;;;5.97;2.47;;;;;;;9.15;100.00;102047.19;5426037;26;20615;-73
2024/04/12 05:01:01;;;;;;;3.17;1.83;;;;;;;9.11;100.00;102044.09;5460945;26;20017;-73
2024/04/12 05:03:27;;;;;;;4.18;2.00;;;;;;;9.09;100.00;102040.72;5430384;26;20002;-73
2024/04/12 05:05:53;;;;;;;4.97;2.00;;;;;;;9.08;100.00;102050.13;5459813;26;20018;-73
2024/04/12 05:08:20;;;;;;;5.22;2.15;;;;;;;9.02;100.00;102058.56;5457414;26;20015;-73
2024/04/12 05:10:46;;;;;;;5.88;2.10;;;;;;;9.03;100.00;102055.56;5430873;26;20002;-73
2024/04/12 05:13:12;;;;;;;4.82;2.17;;;;;;;9.01;100.00;102056.88;5459634;26;20002;-73
2024/04/12 05:18:06;;;;;;;4.65;2.17;;;;;;;8.99;100.00;102068.22;5491845;26;20008;-73
2024/04/12 05:20:41;;;;;;;3.90;2.33;;;;;;;8.92;100.00;102060.03;5489952;26;20069;-73
2024/04/12 05:23:18;;;;;;;4.25;2.17;;;;;;;8.90;100.00;102056.66;5514460;25;20810;-73
2024/04/12 05:25:46;;;;;;;4.75;2.10;;;;;;;8.87;100.00;102059.09;5492861;25;20689;-73
2024/04/12 05:28:12;;;;;;;4.95;2.20;;;;;;;8.90;100.00;102056.66;5492182;26;20055;-73
2024/04/12 05:30:40;;;;;;;4.63;1.98;;;;;;;8.86;100.00;102060.16;5428758;26;20026;-73
2024/04/12 05:33:05;;;;;;;3.80;2.10;;;;;;;8.85;100.00;102061.25;5459571;26;20002;-73
2024/04/12 05:35:31;;;;;;;4.30;1.98;;;;;;;8.84;100.00;102062.34;5468634;26;20018;-72
2024/04/12 05:38:01;;;;;;;3.58;2.08;;;;;;;8.83;100.00;102060.66;5488830;26;20006;-73
2024/04/12 05:40:28;;;;;;;4.13;1.80;;;;;;;8.80;100.00;102055.59;5431750;26;20519;-73
2024/04/12 05:42:53;;;;;;;3.38;1.90;;;;;;;8.83;100.00;102063.44;5459455;26;20006;-73
2024/04/12 05:45:20;;;;;;;4.47;2.10;;;;;;;8.79;100.00;102052.00;5482428;26;20377;-73
2024/04/12 05:47:54;;;;;;;4.45;2.22;;;;;;;8.83;100.00;102060.66;5454275;26;20003;-73
2024/04/12 05:50:20;;;;;;;4.65;1.83;;;;;;;8.87;100.00;102050.78;5455759;26;20439;-72
2024/04/12 05:52:46;;;;;;;3.20;2.10;;;;;;;8.91;100.00;102057.50;5459526;26;20002;-72
2024/04/12 05:55:14;;;;;;;3.92;2.10;;;;;;;8.94;100.00;102060.66;5399777;26;20021;-73
2024/04/12 05:57:40;;;;;;;3.13;1.77;;;;;;;9.02;100.00;102064.09;5394830;26;20069;-72
2024/04/12 06:00:09;;;;;;;2.72;1.80;;;;;;;9.10;100.00;102064.56;5448464;26;20491;-73
2024/04/12 06:02:43;;;;;;;4.68;1.80;;;;;;;9.20;100.00;102074.19;5430622;26;20013;-73
2024/04/12 06:05:09;;;;;;;3.88;1.92;;;;;;;9.31;100.00;102078.84;5458408;26;20018;-73
2024/04/12 06:07:37;;;;;;;3.42;2.10;;;;;;;9.38;100.00;102077.56;5452059;26;20343;-73
2024/04/12 06:10:04;;;;;;;3.35;1.80;;;;;;;9.48;100.00;102074.16;5423811;26;20002;-73
2024/04/12 06:12:33;;;;;;;2.42;1.77;;;;;;;9.57;100.00;102072.66;5429187;26;20346;-72
2024/04/12 06:15:05;;;;;;;2.65;1.58;;;;;;;9.68;100.00;102079.25;5491093;26;20499;-73
2024/04/12 06:17:30;;;;;;;3.13;1.92;;;;;;;9.79;100.00;102081.09;5482314;26;19994;-73
2024/04/12 06:19:59;;;;;;;3.03;1.77;;;;;;;9.93;100.00;102072.47;5429523;26;20012;-73
2024/04/12 06:22:26;;;;;;;5.53;2.05;;;;;;;10.05;100.00;102074.03;5459869;26;20010;-73
2024/04/12 06:24:52;;;;;;;3.30;1.70;;;;;;;10.14;100.00;102071.72;5458974;26;20006;-72
2024/04/12 06:27:29;;;;;;;4.45;1.83;;;;;;;10.22;100.00;102089.88;5429660;26;20071;-72
2024/04/12 06:30:00;;;;;;;2.45;1.95;;;;;;;10.28;100.00;102081.41;5460912;26;20520;-72
2024/04/12 06:32:26;;;;;;;4.70;2.10;;;;;;;10.35;100.00;102078.44;5430557;26;20002;-72
2024/04/12 06:34:55;;;;;;;4.78;2.10;;;;;;;10.45;100.00;102078.59;5458539;26;20269;-72
2024/04/12 06:37:23;;;;;;;3.25;1.70;;;;;;;10.53;100.00;102080.13;5488840;26;20025;-72
2024/04/12 06:39:49;;;;;;;4.53;1.90;;;;;;;10.61;100.00;102084.38;5459593;26;20013;-72
2024/04/12 06:42:15;;;;;;;3.95;2.15;;;;;;;10.70;100.00;102085.63;5458783;26;19998;-72
2024/04/12 06:44:48;;;;;;;3.47;1.90;;;;;;;10.82;100.00;102093.84;5472308;26;20005;-72
2024/04/12 06:47:18;;;;;;;4.80;2.00;;;;;;;10.89;100.00;102091.69;5438923;26;20017;-72
2024/04/12 06:49:44;;;;;;;4.00;2.10;;;;;;;10.93;100.00;102090.94;5476670;26;20038;-72
2024/04/12 06:52:10;;;;;;;4.03;2.05;;;;;;;11.07;100.00;102101.69;5490181;26;20002;-72
2024/04/12 06:54:40;;;;;;;5.00;2.45;;;;;;;11.15;100.00;102095.66;5399046;26;20020;-72
2024/04/12 06:57:08;;;;;;;2.58;2.25;;;;;;;11.28;100.00;102095.28;5458161;26;20038;-73
2024/04/12 06:59:36;;;;;;;4.32;2.20;;;;;;;11.45;100.00;102097.09;5512153;25;20351;-72
2024/04/12 07:02:06;;;;;;;4.40;2.33;;;;;;;11.61;100.00;102094.22;5452521;26;20003;-72
2024/04/12 07:04:32;;;;;;;5.05;2.92;;;;;;;11.78;100.00;102099.72;5488337;26;20342;-73
2024/04/12 07:06:57;;;;;;;6.85;2.70;;;;;;;11.92;100.00;102097.34;5457675;26;20006;-72
2024/04/12 07:09:23;;;;;;;5.82;2.80;;;;;;;12.12;100.00;102096.69;5458337;26;20330;-72
2024/04/12 07:11:51;;;;;;;4.80;2.83;;;;;;;12.27;100.00;102088.44;5458192;26;20013;-72
2024/04/12 07:14:22;;;;;;;4.18;2.60;;;;;;;12.50;100.00;102084.41;5429228;26;20020;-73
2024/04/12 07:16:48;;;;;;;4.13;2.95;;;;;;;12.70;100.00;102080.06;5429989;26;20002;-72
2024/04/12 07:19:14;;;;;;;5.20;2.80;;;;;;;12.89;100.00;102077.66;5489446;26;20038;-73
2024/04/12 07:21:40;;;;;;;4.03;3.13;;;;;;;13.06;100.00;102069.94;5453093;26;20038;-72
2024/04/12 07:24:06;;;;;;;4.32;2.70;;;;;;;13.28;100.00;102069.75;5492244;26;20010;-72
2024/04/12 07:26:32;;;;;;;5.38;2.30;;;;;;;13.54;100.00;102073.47;5461459;26;20379;-72
2024/04/12 07:29:00;;;;;;;4.85;3.00;;;;;;;13.77;100.00;102076.84;5429091;26;20014;-72
2024/04/12 07:31:36;;;;;;;5.05;2.33;;;;;;;13.97;100.00;102074.06;5423806;26;20524;-72
2024/04/12 07:34:02;;;;;;;4.88;2.30;;;;;;;14.23;100.00;102077.69;5453014;26;20446;-72
2024/04/12 07:36:30;;;;;;;4.80;1.98;;;;;;;14.44;100.00;102081.31;5401307;26;20017;-72
2024/04/12 07:39:08;;;;;;;6.32;2.40;;;;;;;14.64;100.00;102074.84;5461232;26;20006;-72
2024/04/12 07:41:36;;;;;;;4.40;2.00;;;;;;;14.83;100.00;102069.50;5464409;26;20037;-73
2024/04/12 07:44:04;;;;;;;5.15;1.90;;;;;;;15.01;100.00;102067.19;5495045;26;20006;-73
2024/04/12 07:46:33;;;;;;;8.77;2.20;;;;;;;15.15;100.00;102071.03;5448535;26;20002;-73
2024/04/12 07:49:07;;;;;;;5.43;1.88;;;;;;;15.30;100.00;102065.38;5402436;26;20074;-72
2024/04/12 07:51:39;;;;;;;5.47;2.47;;;;;;;15.40;100.00;102068.09;5511402;25;20081;-72
2024/04/12 07:54:05;;;;;;;7.63;2.15;;;;;;;15.53;100.00;102068.59;5451309;26;20003;-73
2024/04/12 07:56:37;;;;;;;4.07;1.38;;;;;;;15.63;100.00;102068.53;5423111;26;20003;-72
2024/04/12 07:59:25;;;;;;;5.10;1.90;;;;;;;15.74;100.00;102069.31;5451270;26;20018;-72
2024/04/12 08:01:57;;;;;;;7.53;1.77;;;;;;;15.84;100.00;102066.44;5422583;26;20331;-72
2024/04/12 08:04:23;;;;;;;7.65;2.00;;;;;;;15.97;100.00;102070.56;5539110;25;20017;-73
2024/04/12 08:09:21;;;;;;;10.23;2.28;;;;;;;16.23;100.00;102071.16;5465009;26;20015;-73
2024/04/12 08:11:51;;;;;;;3.95;1.80;;;;;;;16.35;100.00;102073.56;5448222;26;20012;-73
2024/04/12 08:14:20;;;;;;;5.57;1.95;;;;;;;16.52;100.00;102073.97;5470641;26;20003;-72
2024/04/12 08:16:46;;;;;;;5.95;1.80;;;;;;;16.68;100.00;102083.88;5474428;26;20066;-72
2024/04/12 08:19:13;;;;;;;4.38;1.90;;;;;;;16.83;100.00;102077.31;5474144;26;20007;-72
2024/04/12 08:21:44;;;;;;;4.13;1.80;;;;;;;17.03;100.00;102076.22;5472465;26;19999;-73
2024/04/12 08:24:11;;;;;;;3.55;2.15;;;;;;;17.16;100.00;102067.06;5446780;26;20003;-73
2024/04/12 08:26:45;;;;;;;4.57;1.50;;;;;;;17.35;100.00;102074.66;5511202;25;20015;-72
2024/04/12 08:29:23;;;;;;;3.08;1.33;;;;;;;17.52;100.00;102074.13;5491627;25;20039;-73
2024/04/12 08:32:13;;;;;;;3.38;1.17;;;;;;;17.70;100.00;102073.31;5437352;26;20627;-73
2024/04/12 08:34:44;;;;;;;2.20;1.10;;;;;;;17.90;100.00;102069.38;5450150;26;19995;-72
2024/04/12 08:37:13;;;;;;;1.67;1.15;;;;;;;18.04;100.00;102070.25;5466175;26;20596;-73
2024/04/12 08:39:53;;;;;;;2.80;1.20;;;;;;;18.22;100.00;102082.63;5424030;26;19998;-72
2024/04/12 08:42:18;;;;;;;2.10;0.90;;;;;;;18.35;100.00;102078.16;5448946;26;20018;-72
2024/04/12 08:44:45;;;;;;;3.00;1.02;;;;;;;18.53;100.00;102084.88;5421904;26;20657;-73
2024/04/12 08:49:56;;;;;;;1.65;1.05;;;;;;;18.81;100.00;102082.13;5445456;26;20342;-72
2024/04/12 08:52:25;;;;;;;2.15;0.77;;;;;;;18.95;100.00;102078.16;5492065;25;20324;-73
2024/04/12 08:54:54;;;;;;;2.15;0.77;;;;;;;19.14;100.00;102080.88;5476453;26;20006;-73
2024/04/12 08:57:23;;;;;;;1.45;0.60;;;;;;;19.29;100.00;102085.31;5407759;26;20447;-73
2024/04/12 08:59:49;;;;;;;1.75;0.60;;;;;;;19.43;100.00;102088.13;5418645;26;19995;-73
2024/04/12 09:02:17;;;;;;;1.60;0.73;;;;;;;19.52;100.00;102082.56;5449883;26;20356;-73
2024/04/12 09:04:43;;;;;;;2.42;0.60;;;;;;;19.64;100.00;102082.88;5417436;26;20034;-73
2024/04/12 09:07:12;;;;;;;2.47;0.50;;;;;;;19.77;100.00;102084.81;5454488;26;20014;-72
2024/04/12 09:09:37;;;;;;;3.03;0.90;;;;;;;19.86;100.00;102080.09;5443700;26;20007;-73
2024/04/12 09:12:12;;;;;;;1.60;0.68;;;;;;;19.98;100.00;102078.69;5452277;26;20013;-73
2024/04/12 09:14:40;;;;;;;1.33;0.52;;;;;;;20.07;100.00;102079.59;5442593;26;20011;-73
2024/04/12 09:17:14;;;;;;;1.92;0.70;;;;;;;20.17;100.00;102084.97;5422907;26;20010;-73
2024/04/12 09:19:45;;;;;;;0.88;0.43;;;;;;;20.33;100.00;102076.91;5482719;26;19995;-73
2024/04/12 09:22:17;;;;;;;2.17;0.40;;;;;;;20.48;100.00;102085.00;5393760;26;20003;-73
2024/04/12 09:24:47;;;;;;;2.00;0.60;;;;;;;20.63;100.00;102080.94;5407885;26;20051;-73
2024/04/12 09:27:15;;;;;;;1.73;0.82;;;;;;;20.78;100.00;102078.84;5476467;26;19998;-73
2024/04/12 09:29:43;;;;;;;2.13;0.60;;;;;;;20.89;100.00;102088.69;5405500;26;19994;-72
2024/04/12 09:34:58;;;;;;;1.55;0.60;;;;;;;21.14;100.00;102090.75;5481678;26;20002;-73
2024/04/12 09:37:38;;;;;;;1.13;0.60;;;;;;;21.26;100.00;102092.16;5451366;26;20009;-73
2024/04/12 09:40:16;;;;;;;2.30;0.88;;;;;;;21.40;100.00;102084.41;5471851;25;19994;-73
2024/04/12 09:45:19;;;;;;;2.88;1.33;;;;;;;21.68;100.00;102084.09;5453757;26;20002;-73
2024/04/12 10:37:48;;;;;;;5.15;3.08;;;;;;;23.99;92.12;102077.34;5463288;26;20006;-73
2024/04/12 10:40:15;;;;;;;5.38;3.00;;;;;;;23.99;89.46;102071.69;5489120;26;20803;-73
2024/04/12 10:42:45;;;;;;;7.03;2.35;;;;;;;24.05;90.83;102071.09;5423358;26;20009;-72
2024/04/12 10:45:15;;;;;;;3.13;2.15;;;;;;;24.17;94.83;102078.84;5466030;26;20529;-73
2024/04/12 10:47:44;;;;;;;4.20;1.73;;;;;;;24.29;90.90;102073.22;5425946;26;20033;-73
2024/04/12 10:50:10;;;;;;;3.55;1.65;;;;;;;24.44;91.02;102068.06;5448030;26;20478;-73
2024/04/12 10:52:35;;;;;;;4.43;1.50;;;;;;;24.52;89.89;102064.31;5482585;26;20017;-73
2024/04/12 10:55:09;;;;;;;2.92;1.42;;;;;;;24.60;85.31;102066.22;5391268;26;20013;-73
2024/04/12 10:57:40;;;;;;;2.35;1.20;;;;;;;24.69;87.99;102055.56;5463101;26;20006;-73
2024/04/12 11:00:07;;;;;;;3.65;1.40;;;;;;;24.80;87.46;102064.47;5492170;26;20006;-73
2024/04/12 11:02:33;;;;;;;3.95;1.63;;;;;;;24.90;84.13;102057.47;5492195;26;20002;-73
2024/04/12 11:07:49;;;;;;;2.15;1.23;;;;;;;25.10;81.91;102062.22;5460366;26;20010;-73
2024/04/12 11:10:25;;;;;;;2.67;1.08;;;;;;;25.15;81.68;102053.44;5486045;25;20002;-73
2024/04/12 11:13:00;;;;;;;2.00;1.08;;;;;;;25.21;78.83;102056.06;5499738;26;20022;-73
2024/04/12 11:31:52;;;;;;;1.83;1.00;;;;;;;25.82;78.52;102021.75;5455744;26;20031;-73
2024/04/12 11:34:23;;;;;;;2.30;0.75;;;;;;;25.93;79.12;102017.22;5491421;26;20017;-73
2024/04/12 11:36:53;;;;;;;1.40;0.80;;;;;;;25.92;76.99;102021.28;5485434;26;19998;-73
2024/04/12 11:39:25;;;;;;;2.33;0.80;;;;;;;25.99;77.58;102018.66;5454856;26;20615;-73
2024/04/12 11:41:51;;;;;;;2.35;0.90;;;;;;;26.05;76.98;102019.22;5440519;26;20046;-73
2024/04/12 11:44:19;;;;;;;12.82;4.40;;;;;;;26.06;78.27;102013.13;5471245;26;19999;-73
2024/04/12 11:46:45;;;;;;;2.08;1.15;;;;;;;26.14;75.47;102016.19;5468611;26;20010;-73
2024/04/12 11:49:16;;;;;;;1.95;1.05;;;;;;;26.18;73.22;102022.81;5480033;26;19999;-73
2024/04/12 11:51:42;;;;;;;2.58;1.15;;;;;;;26.18;71.04;102025.66;5424213;26;20544;-73
2024/04/12 11:54:09;;;;;;;1.90;1.23;;;;;;;26.22;72.98;102016.03;5424276;26;20002;-73
2024/04/12 11:56:34;;;;;;;2.42;1.25;;;;;;;26.26;71.19;102021.81;5481688;25;20368;-73
2024/04/12 11:59:01;;;;;;;2.08;1.00;;;;;;;26.28;70.61;102010.88;5419754;26;20025;-73
2024/04/12 12:01:29;;;;;;;2.10;1.00;;;;;;;26.32;69.72;102000.41;5437169;26;20011;-73
2024/04/12 12:03:56;;;;;;;3.28;1.13;;;;;;;26.36;70.54;102007.03;5416699;26;20013;-73
2024/04/12 12:06:22;;;;;;;3.05;1.13;;;;;;;26.34;68.05;101998.03;5512918;25;20288;-73
2024/04/12 12:08:57;;;;;;;5.18;1.50;;;;;;;26.40;68.60;101996.53;5505143;25;19999;-73
2024/04/12 12:11:27;;;;;;;3.10;1.10;;;;;;;26.46;67.83;101989.38;5496730;25;19998;-73
2024/04/12 12:13:54;;;;;;;3.97;1.20;;;;;;;26.49;65.31;101985.81;5475165;26;20030;-73
2024/04/12 12:16:19;;;;;;;4.07;1.08;;;;;;;26.48;67.22;101991.88;5509172;25;20015;-73
2024/04/12 12:18:45;;;;;;;1.75;0.88;;;;;;;26.52;67.08;101982.25;5405842;26;20014;-73
2024/04/12 12:21:11;;;;;;;2.38;0.75;;;;;;;26.55;67.70;101986.41;5481831;26;20012;-73
2024/04/12 12:23:37;;;;;;;2.28;0.95;;;;;;;26.58;67.94;101984.81;5476451;26;20003;-73
2024/04/12 12:26:03;;;;;;;2.08;0.90;;;;;;;26.64;70.24;101977.66;5394722;26;19994;-73
2024/04/12 12:28:29;;;;;;;2.83;1.20;;;;;;;26.71;68.92;101977.81;5477418;26;20006;-73
2024/04/12 12:30:57;;;;;;;1.65;0.98;;;;;;;26.76;70.36;101983.25;5416107;26;20483;-73
2024/04/12 12:33:24;;;;;;;2.28;0.90;;;;;;;26.84;68.32;101987.91;5425090;26;20013;-73
2024/04/12 12:35:54;;;;;;;1.95;0.80;;;;;;;26.86;65.46;101979.00;5457783;26;20331;-73
2024/04/12 12:38:21;;;;;;;2.10;1.00;;;;;;;26.93;63.28;101979.97;5433156;26;20002;-73
2024/04/12 12:40:46;;;;;;;1.85;1.08;;;;;;;26.99;62.61;101971.16;5467348;26;20006;-73
2024/04/12 12:43:12;;;;;;;2.40;1.20;;;;;;;27.06;63.07;101968.47;5454524;26;20013;-73
2024/04/12 12:45:38;;;;;;;2.63;1.00;;;;;;;27.07;62.67;101970.94;5511615;25;20006;-73
2024/04/12 12:48:05;;;;;;;1.70;1.17;;;;;;;26.99;61.27;101965.44;5469749;26;20053;-73
2024/04/12 12:50:30;;;;;;;3.03;1.20;;;;;;;26.97;62.20;101954.44;5465037;26;20010;-73